createdAt,value
2023-10-21T00:01:40.042Z,21.40
2023-10-21T00:04:07.188Z,20.50
2023-10-21T00:06:35.297Z,20.50
2023-10-21T00:09:02.407Z,27.70
2023-10-21T00:11:29.714Z,28.30
2023-10-21T00:13:58.092Z,22.70
2023-10-21T00:16:25.230Z,21.20
2023-10-21T00:18:52.202Z,23.20
2023-10-21T00:21:19.290Z,24.80
2023-10-21T00:23:46.428Z,19.90
2023-10-21T00:26:13.512Z,23.80
2023-10-21T00:28:41.347Z,14.70
2023-10-21T00:31:08.325Z,20.30
2023-10-21T00:33:36.117Z,20.40
2023-10-21T00:36:04.699Z,19.90
2023-10-21T00:38:31.716Z,17.10
2023-10-21T00:40:58.706Z,19.00
2023-10-21T00:43:43.011Z,16.50
2023-10-21T00:46:16.749Z,21.20
2023-10-21T00:48:44.242Z,20.50
2023-10-21T00:51:11.626Z,22.40
2023-10-21T00:53:38.903Z,21.70
2023-10-21T00:56:09.207Z,28.10
2023-10-21T00:58:36.706Z,28.20
2023-10-21T01:01:09.104Z,29.50
2023-10-21T01:03:36.982Z,22.60
2023-10-21T01:06:04.611Z,31.00
2023-10-21T01:08:42.953Z,41.00
2023-10-21T01:11:12.391Z,23.10
2023-10-21T01:13:39.841Z,20.90
2023-10-21T01:16:06.685Z,25.50
2023-10-21T01:18:35.016Z,19.50
2023-10-21T01:21:03.563Z,14.60
2023-10-21T01:23:31.403Z,21.20
2023-10-21T01:25:58.461Z,22.80
2023-10-21T01:28:25.924Z,17.40
2023-10-21T01:30:53.167Z,12.50
2023-10-21T01:33:20.255Z,15.10
2023-10-21T01:35:47.797Z,17.00
2023-10-21T01:38:15.947Z,18.20
2023-10-21T01:40:43.205Z,14.80
2023-10-21T01:43:10.244Z,17.70
2023-10-21T01:45:38.020Z,18.60
2023-10-21T01:48:06.239Z,19.30
2023-10-21T01:50:33.138Z,20.30
2023-10-21T01:53:00.063Z,25.90
2023-10-21T01:55:27.026Z,19.70
2023-10-21T01:57:53.960Z,22.10
2023-10-21T02:00:21.234Z,22.40
2023-10-21T02:02:51.951Z,25.20
2023-10-21T02:05:20.015Z,19.90
2023-10-21T02:07:47.482Z,21.30
2023-10-21T02:10:14.409Z,26.10
2023-10-21T02:12:41.581Z,24.20
2023-10-21T02:15:18.514Z,22.40
2023-10-21T02:17:45.654Z,19.70
2023-10-21T02:20:13.807Z,21.70
2023-10-21T02:22:40.827Z,18.00
2023-10-21T02:25:13.843Z,17.50
2023-10-21T02:27:42.222Z,21.30
2023-10-21T02:30:11.687Z,17.70
2023-10-21T02:32:38.708Z,25.50
2023-10-21T02:35:06.601Z,21.40
2023-10-21T02:37:33.528Z,22.90
2023-10-21T02:40:00.591Z,24.10
2023-10-21T02:42:27.467Z,21.20
2023-10-21T02:44:54.315Z,20.90
2023-10-21T02:47:21.407Z,23.40
2023-10-21T02:49:48.658Z,17.30
2023-10-21T02:52:15.726Z,21.00
2023-10-21T02:54:42.661Z,24.20
2023-10-21T02:57:09.840Z,21.60
2023-10-21T02:59:36.910Z,17.40
2023-10-21T03:02:04.138Z,16.20
2023-10-21T03:04:31.274Z,18.80
2023-10-21T03:06:58.301Z,19.40
2023-10-21T03:09:26.730Z,13.80
2023-10-21T03:11:54.422Z,16.70
2023-10-21T03:14:21.805Z,17.60
2023-10-21T03:16:49.579Z,12.60
2023-10-21T03:19:16.708Z,11.90
2023-10-21T03:21:45.902Z,18.60
2023-10-21T03:24:13.170Z,19.40
2023-10-21T03:26:40.223Z,15.90
2023-10-21T03:29:09.877Z,14.60
2023-10-21T03:31:38.536Z,15.00
2023-10-21T03:34:05.654Z,12.00
2023-10-21T03:36:32.681Z,14.20
2023-10-21T03:38:59.647Z,14.80
2023-10-21T03:41:26.886Z,17.30
2023-10-21T03:43:53.840Z,15.10
2023-10-21T03:46:22.372Z,14.00
2023-10-21T03:48:49.509Z,18.90
2023-10-21T03:51:16.718Z,17.20
2023-10-21T03:53:47.059Z,20.50
2023-10-21T03:56:13.947Z,16.90
2023-10-21T03:58:41.526Z,12.90
2023-10-21T04:01:08.710Z,15.50
2023-10-21T04:03:36.293Z,16.60
2023-10-21T04:06:03.300Z,21.10
2023-10-21T04:08:30.749Z,13.50
2023-10-21T04:10:57.688Z,15.10
2023-10-21T04:13:25.697Z,16.00
2023-10-21T04:15:52.776Z,14.00
2023-10-21T04:18:19.950Z,23.20
2023-10-21T04:20:47.326Z,12.00
2023-10-21T04:23:14.466Z,16.30
2023-10-21T04:25:41.414Z,17.20
2023-10-21T04:28:08.399Z,12.70
2023-10-21T04:30:35.919Z,16.60
2023-10-21T04:33:03.144Z,18.40
2023-10-21T04:35:30.210Z,14.50
2023-10-21T04:37:58.579Z,15.80
2023-10-21T04:40:25.647Z,11.60
2023-10-21T04:42:52.589Z,14.90
2023-10-21T04:45:19.544Z,15.40
2023-10-21T04:47:46.490Z,12.40
2023-10-21T04:50:13.421Z,19.50
2023-10-21T04:52:40.874Z,16.50
2023-10-21T04:55:08.418Z,18.00
2023-10-21T04:57:35.380Z,16.00
2023-10-21T05:00:04.253Z,21.60
2023-10-21T05:02:31.436Z,14.50
2023-10-21T05:04:58.579Z,12.00
2023-10-21T05:07:25.501Z,13.80
2023-10-21T05:09:52.467Z,14.20
2023-10-21T05:12:20.332Z,17.80
2023-10-21T05:14:47.236Z,13.20
2023-10-21T05:17:14.398Z,9.50
2023-10-21T05:19:41.460Z,10.80
2023-10-21T05:22:08.496Z,13.20
2023-10-21T05:24:35.886Z,13.90
2023-10-21T05:27:03.650Z,11.00
2023-10-21T05:29:31.179Z,9.60
2023-10-21T05:31:58.525Z,10.70
2023-10-21T05:34:25.657Z,10.60
2023-10-21T05:36:52.736Z,10.20
2023-10-21T05:39:19.929Z,7.50
2023-10-21T05:41:47.227Z,10.70
2023-10-21T05:44:14.196Z,11.10
2023-10-21T05:46:41.200Z,11.00
2023-10-21T05:49:08.300Z,12.50
2023-10-21T05:51:35.231Z,7.90
2023-10-21T05:54:02.376Z,16.40
2023-10-21T05:56:29.359Z,9.50
2023-10-21T05:58:56.149Z,10.10
2023-10-21T06:01:23.191Z,17.00
2023-10-21T06:03:50.312Z,14.40
2023-10-21T06:06:18.070Z,10.60
2023-10-21T06:08:45.583Z,17.90
2023-10-21T06:11:13.127Z,12.30
2023-10-21T06:13:40.283Z,10.40
2023-10-21T06:16:07.643Z,10.60
2023-10-21T06:18:34.747Z,13.10
2023-10-21T06:21:01.655Z,11.00
2023-10-21T06:23:28.897Z,11.30
2023-10-21T06:25:56.181Z,11.30
2023-10-21T06:28:24.293Z,10.80
2023-10-21T06:30:51.461Z,6.70
2023-10-21T06:33:18.778Z,8.40
2023-10-21T06:35:45.974Z,8.00
2023-10-21T06:38:12.902Z,12.40
2023-10-21T06:40:52.494Z,13.60
2023-10-21T06:43:25.926Z,11.30
2023-10-21T06:45:53.181Z,10.40
2023-10-21T06:48:20.197Z,11.70
2023-10-21T06:50:47.064Z,11.00
2023-10-21T06:53:15.038Z,11.60
2023-10-21T06:55:45.378Z,11.10
2023-10-21T06:58:12.618Z,8.50
2023-10-21T07:00:39.557Z,8.50
2023-10-21T07:03:06.946Z,10.70
2023-10-21T07:05:34.808Z,9.40
2023-10-21T07:08:02.560Z,10.40
2023-10-21T07:10:31.550Z,8.40
2023-10-21T07:12:58.810Z,11.80
2023-10-21T07:15:28.695Z,8.20
2023-10-21T07:17:57.447Z,13.50
2023-10-21T07:20:26.653Z,15.70
2023-10-21T07:22:54.274Z,14.90
2023-10-21T07:25:21.302Z,16.90
2023-10-21T07:27:48.567Z,17.60
2023-10-21T07:30:16.027Z,20.40
2023-10-21T07:32:43.607Z,15.60
2023-10-21T07:35:10.662Z,16.10
2023-10-21T07:37:38.189Z,10.40
2023-10-21T07:40:07.518Z,14.30
2023-10-21T07:42:34.445Z,12.10
2023-10-21T07:45:01.623Z,10.50
2023-10-21T07:47:28.737Z,13.60
2023-10-21T07:49:56.392Z,18.10
2023-10-21T07:52:23.689Z,13.60
2023-10-21T07:54:50.768Z,13.10
2023-10-21T07:57:18.038Z,11.60
2023-10-21T07:59:45.598Z,15.70
2023-10-21T08:02:13.751Z,15.30
2023-10-21T08:04:41.186Z,20.00
2023-10-21T08:07:08.596Z,10.50
2023-10-21T08:09:37.226Z,11.60
2023-10-21T08:12:04.297Z,13.20
2023-10-21T08:14:32.998Z,12.80
2023-10-21T08:17:01.279Z,9.90
2023-10-21T08:19:29.986Z,9.40
2023-10-21T08:21:58.241Z,11.20
2023-10-21T08:24:25.266Z,12.40
2023-10-21T08:26:52.274Z,9.20
2023-10-21T08:29:20.744Z,11.90
2023-10-21T08:31:48.051Z,9.30
2023-10-21T08:34:15.301Z,9.60
2023-10-21T08:36:42.346Z,10.60
2023-10-21T08:39:10.565Z,10.00
2023-10-21T08:41:40.544Z,15.90
2023-10-21T08:44:08.421Z,14.40
2023-10-21T08:46:38.529Z,14.70
2023-10-21T08:49:05.949Z,7.60
2023-10-21T08:51:34.011Z,8.40
2023-10-21T08:54:03.922Z,10.30
2023-10-21T08:56:31.724Z,8.20
2023-10-21T08:58:58.780Z,12.20
2023-10-21T09:01:25.774Z,10.00
2023-10-21T09:03:53.055Z,11.70
2023-10-21T09:06:20.793Z,11.20
2023-10-21T09:08:48.740Z,8.90
2023-10-21T09:11:21.489Z,15.30
2023-10-21T09:13:49.769Z,9.70
2023-10-21T09:16:21.290Z,11.90
2023-10-21T09:18:57.981Z,14.60
2023-10-21T09:21:35.014Z,13.60
2023-10-21T09:24:03.574Z,16.10
2023-10-21T09:26:35.001Z,10.40
2023-10-21T09:29:06.774Z,12.40
2023-10-21T09:31:53.919Z,9.00
2023-10-21T09:34:30.347Z,12.00
2023-10-21T09:37:02.694Z,10.90
2023-10-21T09:39:41.216Z,11.50
2023-10-21T09:42:09.452Z,8.90
2023-10-21T09:44:36.993Z,11.30
2023-10-21T09:47:08.072Z,12.10
2023-10-21T09:49:39.768Z,11.00
2023-10-21T09:52:16.551Z,12.00
2023-10-21T09:54:45.499Z,15.20
2023-10-21T09:57:13.293Z,10.60
2023-10-21T09:59:40.590Z,13.10
2023-10-21T10:02:07.807Z,13.00
2023-10-21T10:04:36.495Z,10.40
2023-10-21T10:07:07.108Z,11.50
2023-10-21T10:09:40.600Z,11.70
2023-10-21T10:12:17.037Z,14.40
2023-10-21T10:14:44.227Z,11.60
2023-10-21T10:17:14.318Z,13.20
2023-10-21T10:19:44.358Z,10.80
2023-10-21T10:22:21.814Z,11.20
2023-10-21T10:24:56.529Z,14.00
2023-10-21T10:27:37.862Z,10.70
2023-10-21T10:30:20.346Z,10.50
2023-10-21T10:32:50.857Z,11.50
2023-10-21T10:35:31.158Z,10.00
2023-10-21T10:38:02.404Z,10.20
2023-10-21T10:40:36.937Z,8.00
2023-10-21T10:43:06.664Z,15.30
2023-10-21T10:45:34.062Z,8.40
2023-10-21T10:48:02.913Z,12.60
2023-10-21T10:50:37.516Z,12.00
2023-10-21T10:53:14.604Z,11.50
2023-10-21T10:55:43.825Z,14.00
2023-10-21T10:58:12.437Z,9.50
2023-10-21T11:00:42.288Z,12.10
2023-10-21T11:03:09.651Z,10.70
2023-10-21T11:05:41.204Z,10.50
2023-10-21T11:08:09.884Z,9.90
2023-10-21T11:10:38.158Z,13.40
2023-10-21T11:13:05.912Z,8.50
2023-10-21T11:15:33.545Z,15.70
2023-10-21T11:18:05.479Z,11.40
2023-10-21T11:20:32.889Z,15.80
2023-10-21T11:23:10.580Z,16.00
2023-10-21T11:25:37.535Z,13.00
2023-10-21T11:28:06.261Z,13.50
2023-10-21T11:30:36.239Z,15.90
2023-10-21T11:33:11.230Z,9.60
2023-10-21T11:35:42.319Z,11.70
2023-10-21T11:38:09.521Z,10.20
2023-10-21T11:40:36.934Z,12.80
2023-10-21T11:43:07.103Z,12.80
2023-10-21T11:45:34.209Z,10.20
2023-10-21T11:48:01.759Z,13.20
2023-10-21T11:50:34.621Z,8.80
2023-10-21T11:53:03.638Z,12.80
2023-10-21T11:55:50.013Z,11.50
2023-10-21T11:58:42.991Z,36.20
2023-10-21T12:01:31.679Z,67.30
2023-10-21T12:04:01.489Z,84.60
2023-10-21T12:06:31.570Z,124.20
2023-10-21T12:09:17.572Z,171.10
2023-10-21T12:12:07.589Z,128.80
2023-10-21T12:14:52.972Z,78.40
2023-10-21T12:17:26.275Z,61.50
2023-10-21T12:19:56.024Z,26.10
2023-10-21T12:22:25.928Z,18.30
2023-10-21T12:25:11.865Z,16.70
2023-10-21T12:27:41.826Z,15.50
2023-10-21T12:30:28.565Z,15.90
2023-10-21T12:33:14.842Z,16.70
2023-10-21T12:35:53.761Z,12.20
2023-10-21T12:38:23.997Z,14.10
2023-10-21T12:41:09.673Z,15.40
2023-10-21T12:43:37.161Z,15.50
2023-10-21T12:46:30.404Z,15.40
2023-10-21T12:49:06.938Z,18.70
2023-10-21T12:51:42.141Z,15.30
2023-10-21T12:54:14.690Z,12.40
2023-10-21T12:56:42.650Z,11.80
2023-10-21T12:59:09.790Z,14.80
2023-10-21T13:01:39.122Z,16.40
2023-10-21T13:04:06.622Z,13.40
2023-10-21T13:06:34.277Z,14.10
2023-10-21T13:09:01.620Z,16.40
2023-10-21T13:11:29.118Z,10.40
2023-10-21T13:13:56.081Z,12.80
2023-10-21T13:16:23.890Z,10.30
2023-10-21T13:18:52.050Z,11.70
2023-10-21T13:21:19.628Z,13.50
2023-10-21T13:23:46.950Z,13.00
2023-10-21T13:26:14.058Z,14.40
2023-10-21T13:28:41.412Z,10.80
2023-10-21T13:31:08.997Z,9.20
2023-10-21T13:33:36.264Z,13.70
2023-10-21T13:36:06.809Z,15.70
2023-10-21T13:38:33.798Z,13.40
2023-10-21T13:41:00.766Z,12.50
2023-10-21T13:43:27.730Z,19.90
2023-10-21T13:45:54.688Z,16.10
2023-10-21T13:48:21.793Z,17.00
2023-10-21T13:50:54.157Z,13.00
2023-10-21T13:53:26.788Z,11.90
2023-10-21T13:55:57.299Z,13.80
2023-10-21T13:58:24.211Z,13.70
2023-10-21T14:00:51.219Z,9.00
2023-10-21T14:03:25.890Z,17.20
2023-10-21T14:05:55.573Z,11.20
2023-10-21T14:08:26.434Z,13.10
2023-10-21T14:10:57.061Z,12.10
2023-10-21T14:13:32.897Z,12.20
2023-10-21T14:16:00.079Z,16.80
2023-10-21T14:18:28.984Z,17.70
2023-10-21T14:20:56.125Z,13.90
2023-10-21T14:23:24.372Z,12.70
2023-10-21T14:25:54.254Z,13.40
2023-10-21T14:28:21.959Z,14.20
2023-10-21T14:30:50.534Z,18.00
2023-10-21T14:33:22.106Z,16.50
2023-10-21T14:38:16.808Z,13.60
2023-10-21T14:40:44.457Z,14.10
2023-10-21T14:43:15.164Z,18.70
2023-10-21T14:45:43.796Z,13.70
2023-10-21T14:48:11.372Z,15.40
2023-10-21T14:50:39.714Z,21.70
2023-10-21T14:53:08.978Z,14.40
2023-10-21T14:55:51.828Z,15.40
2023-10-21T14:58:26.054Z,10.00
2023-10-21T15:00:53.797Z,13.30
2023-10-21T15:03:22.117Z,20.40
2023-10-21T15:05:49.774Z,14.00
2023-10-21T15:08:21.508Z,17.30
2023-10-21T15:13:16.137Z,17.50
2023-10-21T15:15:43.743Z,17.90
2023-10-21T15:18:11.095Z,14.50
2023-10-21T15:20:38.217Z,17.30
2023-10-21T15:23:04.953Z,18.50
2023-10-21T15:25:31.899Z,12.90
2023-10-21T15:27:59.330Z,18.60
2023-10-21T15:30:26.502Z,18.50
2023-10-21T15:32:56.900Z,16.80
2023-10-21T15:35:24.497Z,12.70
2023-10-21T15:37:51.481Z,16.30
2023-10-21T15:40:20.084Z,19.30
2023-10-21T15:42:47.159Z,14.40
2023-10-21T15:45:14.764Z,12.40
2023-10-21T15:47:42.196Z,16.60
2023-10-21T15:50:10.749Z,11.00
2023-10-21T15:52:38.010Z,15.30
2023-10-21T15:55:05.784Z,18.80
2023-10-21T15:57:33.694Z,17.90
2023-10-21T16:00:03.411Z,19.20
2023-10-21T16:02:37.802Z,17.80
2023-10-21T16:05:05.334Z,16.20
2023-10-21T16:09:59.682Z,18.50
2023-10-21T16:12:28.537Z,22.00
2023-10-21T16:14:55.692Z,14.70
2023-10-21T16:17:23.329Z,17.00
2023-10-21T16:19:50.293Z,21.70
2023-10-21T16:22:17.328Z,17.70
2023-10-21T16:24:44.417Z,16.80
2023-10-21T16:27:11.489Z,16.20
2023-10-21T16:29:38.902Z,14.80
2023-10-21T16:32:07.410Z,19.00
2023-10-21T16:34:34.368Z,17.50
2023-10-21T16:37:01.548Z,17.70
2023-10-21T16:39:28.720Z,14.20
2023-10-21T16:41:56.060Z,21.10
2023-10-21T16:44:23.167Z,17.00
2023-10-21T16:46:50.162Z,15.10
2023-10-21T16:49:17.082Z,18.30
2023-10-21T16:51:44.505Z,16.40
2023-10-21T16:54:13.514Z,20.10
2023-10-21T16:56:40.472Z,16.00
2023-10-21T16:59:07.823Z,17.00
2023-10-21T17:01:34.918Z,13.90
2023-10-21T17:04:02.008Z,15.90
2023-10-21T17:06:31.619Z,17.40
2023-10-21T17:09:00.408Z,19.80
2023-10-21T17:11:27.330Z,18.60
2023-10-21T17:13:56.849Z,14.70
2023-10-21T17:16:25.846Z,19.00
2023-10-21T17:18:53.139Z,13.80
2023-10-21T17:21:20.077Z,19.20
2023-10-21T17:23:49.590Z,19.40
2023-10-21T17:26:17.940Z,20.70
2023-10-21T17:28:44.977Z,22.00
2023-10-21T17:31:12.286Z,21.70
2023-10-21T17:33:50.012Z,20.90
2023-10-21T17:36:18.508Z,12.30
2023-10-21T17:38:45.517Z,16.60
2023-10-21T17:41:12.326Z,22.90
2023-10-21T17:43:39.749Z,17.00
2023-10-21T17:46:06.722Z,19.30
2023-10-21T17:48:34.027Z,14.70
2023-10-21T17:51:01.223Z,21.60
2023-10-21T17:53:28.556Z,18.90
2023-10-21T17:55:55.718Z,23.50
2023-10-21T17:58:22.753Z,19.40
2023-10-21T18:00:49.840Z,19.00
2023-10-21T18:03:17.285Z,9.50
2023-10-21T18:05:46.462Z,13.10
2023-10-21T18:08:13.808Z,13.10
2023-10-21T18:10:40.745Z,10.40
2023-10-21T18:13:07.627Z,10.70
2023-10-21T18:15:34.568Z,17.30
2023-10-21T18:18:03.199Z,17.70
2023-10-21T18:20:30.369Z,12.70
2023-10-21T18:22:59.154Z,14.20
2023-10-21T18:25:27.546Z,14.30
2023-10-21T18:27:55.677Z,15.70
2023-10-21T18:30:23.425Z,12.20
2023-10-21T18:32:50.783Z,10.80
2023-10-21T18:35:17.866Z,13.30
2023-10-21T18:37:44.930Z,11.20
2023-10-21T18:40:12.086Z,9.80
2023-10-21T18:42:39.005Z,17.90
2023-10-21T18:45:07.009Z,11.10
2023-10-21T18:47:34.234Z,6.90
2023-10-21T18:50:01.305Z,8.80
2023-10-21T18:52:28.512Z,11.80
2023-10-21T18:54:55.387Z,14.90
2023-10-21T18:57:24.380Z,12.10
2023-10-21T18:59:54.196Z,12.30
2023-10-21T19:02:21.640Z,9.20
2023-10-21T19:04:48.881Z,12.40
2023-10-21T19:07:15.805Z,8.00
2023-10-21T19:09:43.518Z,16.10
2023-10-21T19:12:10.733Z,10.70
2023-10-21T19:14:38.828Z,9.10
2023-10-21T19:17:05.905Z,14.20
2023-10-21T19:19:34.256Z,9.30
2023-10-21T19:22:01.301Z,9.60
2023-10-21T19:24:28.467Z,13.70
2023-10-21T19:26:55.445Z,13.50
2023-10-21T19:29:22.357Z,7.50
2023-10-21T19:31:50.785Z,11.50
2023-10-21T19:34:18.192Z,10.90
2023-10-21T19:36:45.696Z,11.40
2023-10-21T19:39:13.199Z,11.10
2023-10-21T19:41:40.436Z,9.00
2023-10-21T19:47:04.333Z,11.30
2023-10-21T19:49:34.439Z,11.20
2023-10-21T19:52:03.133Z,9.50
2023-10-21T19:54:32.145Z,10.60
2023-10-21T19:56:59.081Z,17.00
2023-10-21T19:59:26.224Z,15.00
2023-10-21T20:01:54.905Z,8.60
2023-10-21T20:04:21.971Z,13.60
2023-10-21T20:06:49.266Z,8.50
2023-10-21T20:09:16.607Z,9.80
2023-10-21T20:11:45.253Z,9.70
2023-10-21T20:14:13.543Z,13.20
2023-10-21T20:16:40.790Z,12.20
2023-10-21T20:19:07.711Z,12.20
2023-10-21T20:21:40.304Z,9.90
2023-10-21T20:24:07.956Z,13.10
2023-10-21T20:26:35.536Z,8.40
2023-10-21T20:29:02.870Z,13.30
2023-10-21T20:31:32.270Z,15.60
2023-10-21T20:34:00.549Z,15.80
2023-10-21T20:36:28.490Z,31.80
2023-10-21T20:38:56.375Z,18.90
2023-10-21T20:41:23.327Z,22.50
2023-10-21T20:43:52.114Z,22.30
2023-10-21T20:46:19.368Z,18.70
2023-10-21T20:48:46.576Z,15.70
2023-10-21T20:51:17.184Z,13.60
2023-10-21T20:53:44.250Z,16.80
2023-10-21T20:56:17.897Z,13.60
2023-10-21T20:58:44.831Z,9.40
2023-10-21T21:01:13.184Z,19.00
2023-10-21T21:03:43.528Z,10.70
2023-10-21T21:06:10.598Z,14.20
2023-10-21T21:08:37.736Z,15.80
2023-10-21T21:11:05.302Z,20.60
2023-10-21T21:13:32.245Z,15.60
2023-10-21T21:15:59.262Z,14.20
2023-10-21T21:18:26.772Z,7.30
2023-10-21T21:20:55.946Z,9.70
2023-10-21T21:23:23.078Z,8.10
2023-10-21T21:25:50.129Z,10.90
2023-10-21T21:28:17.796Z,13.10
2023-10-21T21:30:52.057Z,12.40
2023-10-21T21:33:22.477Z,11.70
2023-10-21T21:35:59.414Z,9.10
2023-10-21T21:38:27.581Z,11.70
2023-10-21T21:40:54.653Z,7.60
2023-10-21T21:43:21.915Z,11.90
2023-10-21T21:45:49.073Z,7.90
2023-10-21T21:48:16.213Z,11.60
2023-10-21T21:50:43.125Z,9.80
2023-10-21T21:53:12.115Z,10.30
2023-10-21T21:55:41.418Z,10.00
2023-10-21T21:58:08.260Z,10.90
2023-10-21T22:00:40.694Z,11.70
2023-10-21T22:03:07.857Z,8.50
2023-10-21T22:05:36.043Z,12.40
2023-10-21T22:08:04.651Z,8.50
2023-10-21T22:10:33.459Z,5.90
2023-10-21T22:13:01.297Z,7.40
2023-10-21T22:15:28.551Z,8.50
2023-10-21T22:17:55.737Z,7.70
2023-10-21T22:20:24.350Z,9.10
2023-10-21T22:22:54.122Z,12.10
2023-10-21T22:25:39.190Z,9.50
2023-10-21T22:28:12.574Z,5.30
2023-10-21T22:30:41.456Z,5.30
2023-10-21T22:33:08.722Z,13.20
2023-10-21T22:35:36.216Z,9.20
2023-10-21T22:38:03.624Z,6.80
2023-10-21T22:40:30.570Z,7.10
2023-10-21T22:42:57.733Z,12.90
2023-10-21T22:45:26.297Z,8.10
2023-10-21T22:47:53.461Z,24.80
2023-10-21T22:50:21.950Z,24.20
2023-10-21T22:52:48.992Z,24.30
2023-10-21T22:55:16.143Z,16.10
2023-10-21T22:57:45.207Z,14.50
2023-10-21T23:00:13.297Z,12.50
2023-10-21T23:02:43.349Z,16.70
2023-10-21T23:05:11.020Z,12.90
2023-10-21T23:07:38.752Z,20.10
2023-10-21T23:10:22.682Z,20.60
2023-10-21T23:12:50.982Z,19.90
2023-10-21T23:15:18.725Z,17.60
2023-10-21T23:17:46.547Z,20.70
2023-10-21T23:20:13.958Z,11.80
2023-10-21T23:22:41.219Z,14.50
2023-10-21T23:25:11.336Z,16.90
2023-10-21T23:27:39.286Z,26.70
2023-10-21T23:30:14.942Z,20.80
2023-10-21T23:32:42.326Z,17.70
2023-10-21T23:35:09.958Z,16.30
2023-10-21T23:37:39.508Z,14.20
2023-10-21T23:40:10.592Z,17.70
2023-10-21T23:42:39.268Z,11.70
2023-10-21T23:45:07.889Z,17.40
2023-10-21T23:47:35.726Z,14.60
2023-10-21T23:50:03.083Z,18.00
2023-10-21T23:52:31.465Z,15.70
2023-10-21T23:54:58.314Z,18.90
2023-10-21T23:57:25.333Z,16.70
2023-10-21T23:59:52.406Z,20.70
